sensor_id;sensor_type;location;lat;lon;timestamp;temperature;humidity
8436;DHT22;4255;48.730;9.156;2023-02-01T00:01:44;3.80;99.90
8436;DHT22;4255;48.730;9.156;2023-02-01T00:04:10;3.80;99.90
8436;DHT22;4255;48.730;9.156;2023-02-01T00:06:35;3.80;99.90
8436;DHT22;4255;48.730;9.156;2023-02-01T00:09:01;3.80;99.90
8436;DHT22;4255;48.730;9.156;2023-02-01T00:11:27;3.70;99.90
8436;DHT22;4255;48.730;9.156;2023-02-01T00:13:53;3.70;99.90
8436;DHT22;4255;48.730;9.156;2023-02-01T00:16:21;3.70;99.90
8436;DHT22;4255;48.730;9.156;2023-02-01T00:18:49;3.70;99.90
8436;DHT22;4255;48.730;9.156;2023-02-01T00:21:17;3.70;99.90
8436;DHT22;4255;48.730;9.156;2023-02-01T00:23:43;3.80;99.90
8436;DHT22;4255;48.730;9.156;2023-02-01T00:26:42;3.70;99.90
8436;DHT22;4255;48.730;9.156;2023-02-01T00:29:16;3.70;99.90
8436;DHT22;4255;48.730;9.156;2023-02-01T00:31:42;3.70;99.90
8436;DHT22;4255;48.730;9.156;2023-02-01T00:34:14;3.90;99.90
8436;DHT22;4255;48.730;9.156;2023-02-01T00:36:41;3.90;99.90
8436;DHT22;4255;48.730;9.156;2023-02-01T00:39:06;3.90;99.90
8436;DHT22;4255;48.730;9.156;2023-02-01T00:41:32;3.90;99.90
8436;DHT22;4255;48.730;9.156;2023-02-01T00:43:58;3.80;99.90
8436;DHT22;4255;48.730;9.156;2023-02-01T00:46:24;3.80;99.90
8436;DHT22;4255;48.730;9.156;2023-02-01T00:48:50;3.90;99.90
8436;DHT22;4255;48.730;9.156;2023-02-01T00:51:18;3.90;99.90
8436;DHT22;4255;48.730;9.156;2023-02-01T00:53:44;4.00;99.90
8436;DHT22;4255;48.730;9.156;2023-02-01T00:56:11;4.00;99.90
8436;DHT22;4255;48.730;9.156;2023-02-01T00:58:36;4.00;99.90
8436;DHT22;4255;48.730;9.156;2023-02-01T01:01:21;4.10;99.90
8436;DHT22;4255;48.730;9.156;2023-02-01T01:03:49;4.10;99.90
8436;DHT22;4255;48.730;9.156;2023-02-01T01:06:19;4.10;99.90
8436;DHT22;4255;48.730;9.156;2023-02-01T01:08:45;4.10;99.90
8436;DHT22;4255;48.730;9.156;2023-02-01T01:11:12;4.20;99.90
8436;DHT22;4255;48.730;9.156;2023-02-01T01:13:38;4.10;99.90
8436;DHT22;4255;48.730;9.156;2023-02-01T01:16:05;4.20;99.90
8436;DHT22;4255;48.730;9.156;2023-02-01T01:18:32;4.20;99.90
8436;DHT22;4255;48.730;9.156;2023-02-01T01:20:58;4.20;99.90
8436;DHT22;4255;48.730;9.156;2023-02-01T01:23:24;4.20;99.90
8436;DHT22;4255;48.730;9.156;2023-02-01T01:25:50;4.30;99.90
8436;DHT22;4255;48.730;9.156;2023-02-01T01:28:15;4.30;99.90
8436;DHT22;4255;48.730;9.156;2023-02-01T01:30:41;4.20;99.90
8436;DHT22;4255;48.730;9.156;2023-02-01T01:33:07;4.20;99.90
8436;DHT22;4255;48.730;9.156;2023-02-01T01:35:33;4.20;99.90
8436;DHT22;4255;48.730;9.156;2023-02-01T01:37:59;4.20;99.90
8436;DHT22;4255;48.730;9.156;2023-02-01T01:40:26;4.50;99.90
8436;DHT22;4255;48.730;9.156;2023-02-01T01:42:52;4.50;99.90
8436;DHT22;4255;48.730;9.156;2023-02-01T01:45:31;4.30;99.90
8436;DHT22;4255;48.730;9.156;2023-02-01T01:48:05;4.30;99.90
8436;DHT22;4255;48.730;9.156;2023-02-01T01:50:40;4.50;99.90
8436;DHT22;4255;48.730;9.156;2023-02-01T01:53:08;4.40;99.90
8436;DHT22;4255;48.730;9.156;2023-02-01T01:55:39;4.30;99.90
8436;DHT22;4255;48.730;9.156;2023-02-01T01:58:10;4.20;99.90
8436;DHT22;4255;48.730;9.156;2023-02-01T02:00:37;4.30;99.90
8436;DHT22;4255;48.730;9.156;2023-02-01T02:03:15;4.30;99.90
8436;DHT22;4255;48.730;9.156;2023-02-01T02:05:43;4.20;99.90
8436;DHT22;4255;48.730;9.156;2023-02-01T02:08:10;4.40;99.90
8436;DHT22;4255;48.730;9.156;2023-02-01T02:10:36;4.30;99.90
8436;DHT22;4255;48.730;9.156;2023-02-01T02:13:21;4.40;99.90
8436;DHT22;4255;48.730;9.156;2023-02-01T02:21:45;4.30;99.90
8436;DHT22;4255;48.730;9.156;2023-02-01T02:24:37;4.20;99.90
8436;DHT22;4255;48.730;9.156;2023-02-01T02:30:15;4.30;99.90
8436;DHT22;4255;48.730;9.156;2023-02-01T02:44:39;4.30;99.90
8436;DHT22;4255;48.730;9.156;2023-02-01T02:53:05;4.40;99.90
8436;DHT22;4255;48.730;9.156;2023-02-01T02:55:52;4.30;99.90
8436;DHT22;4255;48.730;9.156;2023-02-01T02:58:19;4.30;99.90
8436;DHT22;4255;48.730;9.156;2023-02-01T03:01:05;4.40;99.90
8436;DHT22;4255;48.730;9.156;2023-02-01T03:03:49;4.40;99.90
8436;DHT22;4255;48.730;9.156;2023-02-01T03:06:34;4.40;99.90
8436;DHT22;4255;48.730;9.156;2023-02-01T03:09:03;4.40;99.90
8436;DHT22;4255;48.730;9.156;2023-02-01T03:11:29;4.40;99.90
8436;DHT22;4255;48.730;9.156;2023-02-01T03:14:18;4.40;99.90
8436;DHT22;4255;48.730;9.156;2023-02-01T03:16:53;4.40;99.90
8436;DHT22;4255;48.730;9.156;2023-02-01T03:19:25;4.30;99.90
8436;DHT22;4255;48.730;9.156;2023-02-01T03:21:56;4.40;99.90
8436;DHT22;4255;48.730;9.156;2023-02-01T03:24:37;4.40;99.90
8436;DHT22;4255;48.730;9.156;2023-02-01T03:32:26;4.40;99.90
8436;DHT22;4255;48.730;9.156;2023-02-01T03:34:52;4.50;99.90
8436;DHT22;4255;48.730;9.156;2023-02-01T03:37:25;4.40;99.90
8436;DHT22;4255;48.730;9.156;2023-02-01T03:40:05;4.30;99.90
8436;DHT22;4255;48.730;9.156;2023-02-01T03:42:40;4.40;99.90
8436;DHT22;4255;48.730;9.156;2023-02-01T03:45:18;4.40;99.90
8436;DHT22;4255;48.730;9.156;2023-02-01T03:47:48;4.30;99.90
8436;DHT22;4255;48.730;9.156;2023-02-01T03:50:17;4.20;99.90
8436;DHT22;4255;48.730;9.156;2023-02-01T03:55:22;4.20;99.90
8436;DHT22;4255;48.730;9.156;2023-02-01T03:57:53;4.20;99.90
8436;DHT22;4255;48.730;9.156;2023-02-01T04:00:23;4.20;99.90
8436;DHT22;4255;48.730;9.156;2023-02-01T04:02:50;4.30;99.90
8436;DHT22;4255;48.730;9.156;2023-02-01T04:05:16;4.50;99.90
8436;DHT22;4255;48.730;9.156;2023-02-01T04:07:42;4.60;99.90
8436;DHT22;4255;48.730;9.156;2023-02-01T04:10:09;4.60;99.90
8436;DHT22;4255;48.730;9.156;2023-02-01T04:12:35;4.60;99.90
8436;DHT22;4255;48.730;9.156;2023-02-01T04:15:01;4.50;99.90
8436;DHT22;4255;48.730;9.156;2023-02-01T04:17:26;4.60;99.90
8436;DHT22;4255;48.730;9.156;2023-02-01T04:19:52;4.50;99.90
8436;DHT22;4255;48.730;9.156;2023-02-01T04:22:18;4.60;99.90
8436;DHT22;4255;48.730;9.156;2023-02-01T04:24:43;4.60;99.90
8436;DHT22;4255;48.730;9.156;2023-02-01T04:27:09;4.50;99.90
8436;DHT22;4255;48.730;9.156;2023-02-01T04:29:34;4.60;99.90
8436;DHT22;4255;48.730;9.156;2023-02-01T04:32:00;4.60;99.90
8436;DHT22;4255;48.730;9.156;2023-02-01T04:34:26;4.70;99.90
8436;DHT22;4255;48.730;9.156;2023-02-01T04:36:51;4.70;99.90
8436;DHT22;4255;48.730;9.156;2023-02-01T04:39:17;4.70;99.90
8436;DHT22;4255;48.730;9.156;2023-02-01T04:41:43;4.80;99.90
8436;DHT22;4255;48.730;9.156;2023-02-01T04:44:14;4.80;99.90
8436;DHT22;4255;48.730;9.156;2023-02-01T04:46:40;4.80;99.90
8436;DHT22;4255;48.730;9.156;2023-02-01T04:49:05;4.90;99.90
8436;DHT22;4255;48.730;9.156;2023-02-01T04:51:31;4.80;99.90
8436;DHT22;4255;48.730;9.156;2023-02-01T04:53:57;4.80;99.90
8436;DHT22;4255;48.730;9.156;2023-02-01T04:56:23;4.80;99.90
8436;DHT22;4255;48.730;9.156;2023-02-01T04:58:49;4.70;99.90
8436;DHT22;4255;48.730;9.156;2023-02-01T05:01:14;4.70;99.90
8436;DHT22;4255;48.730;9.156;2023-02-01T05:03:40;4.70;99.90
8436;DHT22;4255;48.730;9.156;2023-02-01T05:06:05;4.70;99.90
8436;DHT22;4255;48.730;9.156;2023-02-01T05:08:32;4.80;99.90
8436;DHT22;4255;48.730;9.156;2023-02-01T05:10:57;4.90;99.90
8436;DHT22;4255;48.730;9.156;2023-02-01T05:13:24;4.90;99.90
8436;DHT22;4255;48.730;9.156;2023-02-01T05:16:09;4.80;99.90
8436;DHT22;4255;48.730;9.156;2023-02-01T05:18:34;4.70;99.90
8436;DHT22;4255;48.730;9.156;2023-02-01T05:21:00;4.60;99.90
8436;DHT22;4255;48.730;9.156;2023-02-01T05:23:27;4.60;99.90
8436;DHT22;4255;48.730;9.156;2023-02-01T05:25:52;4.60;99.90
8436;DHT22;4255;48.730;9.156;2023-02-01T05:28:23;4.70;99.90
8436;DHT22;4255;48.730;9.156;2023-02-01T05:30:48;4.60;99.90
8436;DHT22;4255;48.730;9.156;2023-02-01T05:33:14;4.70;99.90
8436;DHT22;4255;48.730;9.156;2023-02-01T05:35:40;4.70;99.90
8436;DHT22;4255;48.730;9.156;2023-02-01T05:38:05;4.70;99.90
8436;DHT22;4255;48.730;9.156;2023-02-01T05:40:31;4.60;99.90
8436;DHT22;4255;48.730;9.156;2023-02-01T05:42:56;4.60;99.90
8436;DHT22;4255;48.730;9.156;2023-02-01T05:45:22;4.50;99.90
8436;DHT22;4255;48.730;9.156;2023-02-01T05:47:47;4.40;99.90
8436;DHT22;4255;48.730;9.156;2023-02-01T05:50:13;4.40;99.90
8436;DHT22;4255;48.730;9.156;2023-02-01T05:52:39;4.40;99.90
8436;DHT22;4255;48.730;9.156;2023-02-01T05:55:05;4.40;99.90
8436;DHT22;4255;48.730;9.156;2023-02-01T05:57:30;4.50;99.90
8436;DHT22;4255;48.730;9.156;2023-02-01T05:59:56;4.40;99.90
8436;DHT22;4255;48.730;9.156;2023-02-01T06:02:21;4.30;99.90
8436;DHT22;4255;48.730;9.156;2023-02-01T06:04:49;4.20;99.90
8436;DHT22;4255;48.730;9.156;2023-02-01T06:07:15;4.20;99.90
8436;DHT22;4255;48.730;9.156;2023-02-01T06:09:41;4.20;99.90
8436;DHT22;4255;48.730;9.156;2023-02-01T06:12:06;4.20;99.90
8436;DHT22;4255;48.730;9.156;2023-02-01T06:14:32;4.10;99.90
8436;DHT22;4255;48.730;9.156;2023-02-01T06:16:58;4.20;99.90
8436;DHT22;4255;48.730;9.156;2023-02-01T06:19:23;4.00;99.90
8436;DHT22;4255;48.730;9.156;2023-02-01T06:21:49;4.00;99.90
8436;DHT22;4255;48.730;9.156;2023-02-01T06:24:15;4.10;99.90
8436;DHT22;4255;48.730;9.156;2023-02-01T06:26:41;4.10;99.90
8436;DHT22;4255;48.730;9.156;2023-02-01T06:29:09;4.10;99.90
8436;DHT22;4255;48.730;9.156;2023-02-01T06:31:34;4.20;99.90
8436;DHT22;4255;48.730;9.156;2023-02-01T06:34:00;4.10;99.90
8436;DHT22;4255;48.730;9.156;2023-02-01T06:36:26;4.10;99.90
8436;DHT22;4255;48.730;9.156;2023-02-01T06:38:52;4.10;99.90
8436;DHT22;4255;48.730;9.156;2023-02-01T06:41:17;4.10;99.90
8436;DHT22;4255;48.730;9.156;2023-02-01T06:43:45;4.20;99.90
8436;DHT22;4255;48.730;9.156;2023-02-01T06:46:12;4.10;99.90
8436;DHT22;4255;48.730;9.156;2023-02-01T06:48:38;4.20;99.90
8436;DHT22;4255;48.730;9.156;2023-02-01T06:51:04;4.20;99.90
8436;DHT22;4255;48.730;9.156;2023-02-01T06:53:30;4.30;99.90
8436;DHT22;4255;48.730;9.156;2023-02-01T06:55:58;4.40;99.90
8436;DHT22;4255;48.730;9.156;2023-02-01T06:58:31;4.40;99.90
8436;DHT22;4255;48.730;9.156;2023-02-01T07:00:57;4.50;99.90
8436;DHT22;4255;48.730;9.156;2023-02-01T07:03:23;4.40;99.90
8436;DHT22;4255;48.730;9.156;2023-02-01T07:05:49;4.50;99.90
8436;DHT22;4255;48.730;9.156;2023-02-01T07:08:15;4.50;99.90
8436;DHT22;4255;48.730;9.156;2023-02-01T07:10:41;4.50;99.90
8436;DHT22;4255;48.730;9.156;2023-02-01T07:13:06;4.50;99.90
8436;DHT22;4255;48.730;9.156;2023-02-01T07:15:32;4.60;99.90
8436;DHT22;4255;48.730;9.156;2023-02-01T07:17:59;4.60;99.90
8436;DHT22;4255;48.730;9.156;2023-02-01T07:20:25;4.60;99.90
8436;DHT22;4255;48.730;9.156;2023-02-01T07:22:55;4.60;99.90
8436;DHT22;4255;48.730;9.156;2023-02-01T07:25:21;4.50;99.90
8436;DHT22;4255;48.730;9.156;2023-02-01T07:27:46;4.40;99.90
8436;DHT22;4255;48.730;9.156;2023-02-01T07:30:12;4.40;99.90
8436;DHT22;4255;48.730;9.156;2023-02-01T07:32:38;4.50;99.90
8436;DHT22;4255;48.730;9.156;2023-02-01T07:35:04;4.50;99.90
8436;DHT22;4255;48.730;9.156;2023-02-01T07:37:29;4.50;99.90
8436;DHT22;4255;48.730;9.156;2023-02-01T07:39:56;4.50;99.90
8436;DHT22;4255;48.730;9.156;2023-02-01T07:42:21;4.60;99.90
8436;DHT22;4255;48.730;9.156;2023-02-01T07:44:47;4.60;99.90
8436;DHT22;4255;48.730;9.156;2023-02-01T07:47:12;4.80;99.90
8436;DHT22;4255;48.730;9.156;2023-02-01T07:49:38;4.80;99.90
8436;DHT22;4255;48.730;9.156;2023-02-01T07:52:04;4.80;99.90
8436;DHT22;4255;48.730;9.156;2023-02-01T07:54:29;5.00;99.90
8436;DHT22;4255;48.730;9.156;2023-02-01T07:56:55;5.10;99.90
8436;DHT22;4255;48.730;9.156;2023-02-01T07:59:21;5.00;99.90
8436;DHT22;4255;48.730;9.156;2023-02-01T08:01:46;5.00;99.90
8436;DHT22;4255;48.730;9.156;2023-02-01T08:04:13;4.90;99.90
8436;DHT22;4255;48.730;9.156;2023-02-01T08:06:39;4.80;99.90
8436;DHT22;4255;48.730;9.156;2023-02-01T08:09:06;4.90;99.90
8436;DHT22;4255;48.730;9.156;2023-02-01T08:11:33;4.90;99.90
8436;DHT22;4255;48.730;9.156;2023-02-01T08:13:59;4.90;99.90
8436;DHT22;4255;48.730;9.156;2023-02-01T08:16:25;4.80;99.90
8436;DHT22;4255;48.730;9.156;2023-02-01T08:18:51;4.90;99.90
8436;DHT22;4255;48.730;9.156;2023-02-01T08:21:22;5.00;99.90
8436;DHT22;4255;48.730;9.156;2023-02-01T08:23:49;5.10;99.90
8436;DHT22;4255;48.730;9.156;2023-02-01T08:26:20;5.00;99.90
8436;DHT22;4255;48.730;9.156;2023-02-01T08:28:50;4.90;99.90
8436;DHT22;4255;48.730;9.156;2023-02-01T08:31:19;4.80;99.90
8436;DHT22;4255;48.730;9.156;2023-02-01T08:33:50;4.80;99.90
8436;DHT22;4255;48.730;9.156;2023-02-01T08:36:16;4.90;99.90
8436;DHT22;4255;48.730;9.156;2023-02-01T08:38:42;4.80;99.90
8436;DHT22;4255;48.730;9.156;2023-02-01T08:41:19;5.00;99.90
8436;DHT22;4255;48.730;9.156;2023-02-01T08:43:45;5.00;99.90
8436;DHT22;4255;48.730;9.156;2023-02-01T08:46:11;5.20;99.90
8436;DHT22;4255;48.730;9.156;2023-02-01T08:48:37;5.40;99.90
8436;DHT22;4255;48.730;9.156;2023-02-01T08:51:09;5.70;99.90
8436;DHT22;4255;48.730;9.156;2023-02-01T08:53:35;5.70;99.90
8436;DHT22;4255;48.730;9.156;2023-02-01T08:56:03;5.90;99.90
8436;DHT22;4255;48.730;9.156;2023-02-01T08:58:29;6.00;99.90
8436;DHT22;4255;48.730;9.156;2023-02-01T09:00:54;5.90;99.90
8436;DHT22;4255;48.730;9.156;2023-02-01T09:03:20;6.00;99.90
8436;DHT22;4255;48.730;9.156;2023-02-01T09:05:46;6.10;99.90
8436;DHT22;4255;48.730;9.156;2023-02-01T09:08:13;6.10;99.90
8436;DHT22;4255;48.730;9.156;2023-02-01T09:10:41;5.90;99.90
8436;DHT22;4255;48.730;9.156;2023-02-01T09:13:07;5.90;99.90
8436;DHT22;4255;48.730;9.156;2023-02-01T09:15:33;5.90;99.90
8436;DHT22;4255;48.730;9.156;2023-02-01T09:17:59;5.90;99.90
8436;DHT22;4255;48.730;9.156;2023-02-01T09:20:24;6.00;99.90
8436;DHT22;4255;48.730;9.156;2023-02-01T09:22:54;6.00;99.90
8436;DHT22;4255;48.730;9.156;2023-02-01T09:25:20;5.90;99.90
8436;DHT22;4255;48.730;9.156;2023-02-01T09:27:46;5.90;99.90
8436;DHT22;4255;48.730;9.156;2023-02-01T09:30:12;5.80;99.90
8436;DHT22;4255;48.730;9.156;2023-02-01T09:32:37;5.80;99.90
8436;DHT22;4255;48.730;9.156;2023-02-01T09:35:03;5.90;99.90
8436;DHT22;4255;48.730;9.156;2023-02-01T09:37:29;6.00;99.90
8436;DHT22;4255;48.730;9.156;2023-02-01T09:39:55;6.00;99.90
8436;DHT22;4255;48.730;9.156;2023-02-01T09:45:10;5.90;99.90
8436;DHT22;4255;48.730;9.156;2023-02-01T09:47:48;6.00;99.90
8436;DHT22;4255;48.730;9.156;2023-02-01T09:50:20;6.10;99.90
8436;DHT22;4255;48.730;9.156;2023-02-01T09:52:54;6.30;99.90
8436;DHT22;4255;48.730;9.156;2023-02-01T09:55:40;6.60;99.90
8436;DHT22;4255;48.730;9.156;2023-02-01T10:00:57;6.80;99.90
8436;DHT22;4255;48.730;9.156;2023-02-01T10:03:31;6.90;99.90
8436;DHT22;4255;48.730;9.156;2023-02-01T10:25:56;6.30;99.90
8436;DHT22;4255;48.730;9.156;2023-02-01T10:28:24;6.40;99.90
8436;DHT22;4255;48.730;9.156;2023-02-01T10:30:54;6.40;99.90
8436;DHT22;4255;48.730;9.156;2023-02-01T10:33:35;6.30;99.90
8436;DHT22;4255;48.730;9.156;2023-02-01T10:36:11;6.10;99.90
8436;DHT22;4255;48.730;9.156;2023-02-01T10:38:39;6.20;99.90
8436;DHT22;4255;48.730;9.156;2023-02-01T10:41:22;6.20;99.90
8436;DHT22;4255;48.730;9.156;2023-02-01T10:43:53;6.20;99.90
8436;DHT22;4255;48.730;9.156;2023-02-01T10:46:22;6.10;99.90
8436;DHT22;4255;48.730;9.156;2023-02-01T10:48:49;6.10;99.90
8436;DHT22;4255;48.730;9.156;2023-02-01T10:51:24;6.30;99.90
8436;DHT22;4255;48.730;9.156;2023-02-01T10:53:58;6.40;99.90
8436;DHT22;4255;48.730;9.156;2023-02-01T10:56:28;6.50;99.90
8436;DHT22;4255;48.730;9.156;2023-02-01T10:59:04;6.30;99.90
8436;DHT22;4255;48.730;9.156;2023-02-01T11:01:34;6.40;99.90
8436;DHT22;4255;48.730;9.156;2023-02-01T11:04:04;6.30;99.90
8436;DHT22;4255;48.730;9.156;2023-02-01T11:06:36;6.20;99.90
8436;DHT22;4255;48.730;9.156;2023-02-01T11:11:53;6.30;99.90
8436;DHT22;4255;48.730;9.156;2023-02-01T11:14:27;6.20;99.90
8436;DHT22;4255;48.730;9.156;2023-02-01T11:16:55;6.30;99.90
8436;DHT22;4255;48.730;9.156;2023-02-01T11:19:22;6.40;99.90
8436;DHT22;4255;48.730;9.156;2023-02-01T11:21:57;6.40;99.90
8436;DHT22;4255;48.730;9.156;2023-02-01T11:24:32;6.40;99.90
8436;DHT22;4255;48.730;9.156;2023-02-01T11:27:02;6.60;99.90
8436;DHT22;4255;48.730;9.156;2023-02-01T11:29:40;6.60;99.90
8436;DHT22;4255;48.730;9.156;2023-02-01T11:32:08;6.40;99.90
8436;DHT22;4255;48.730;9.156;2023-02-01T11:37:27;6.50;99.90
8436;DHT22;4255;48.730;9.156;2023-02-01T11:40:03;6.50;99.90
8436;DHT22;4255;48.730;9.156;2023-02-01T11:42:29;6.50;99.90
8436;DHT22;4255;48.730;9.156;2023-02-01T11:45:23;6.40;99.90
8436;DHT22;4255;48.730;9.156;2023-02-01T11:47:52;6.50;99.90
8436;DHT22;4255;48.730;9.156;2023-02-01T11:56:01;6.40;99.90
8436;DHT22;4255;48.730;9.156;2023-02-01T11:58:57;6.70;99.90
8436;DHT22;4255;48.730;9.156;2023-02-01T12:01:30;6.70;99.90
8436;DHT22;4255;48.730;9.156;2023-02-01T12:06:56;6.70;99.90
8436;DHT22;4255;48.730;9.156;2023-02-01T12:10:01;6.60;99.90
8436;DHT22;4255;48.730;9.156;2023-02-01T12:18:06;6.40;99.90
8436;DHT22;4255;48.730;9.156;2023-02-01T12:20:42;6.60;99.90
8436;DHT22;4255;48.730;9.156;2023-02-01T12:28:33;6.80;99.90
8436;DHT22;4255;48.730;9.156;2023-02-01T12:37:12;6.00;99.90
8436;DHT22;4255;48.730;9.156;2023-02-01T12:42:22;6.00;99.90
8436;DHT22;4255;48.730;9.156;2023-02-01T12:44:56;6.10;99.90
8436;DHT22;4255;48.730;9.156;2023-02-01T12:47:51;6.20;99.90
8436;DHT22;4255;48.730;9.156;2023-02-01T12:50:23;6.30;99.90
8436;DHT22;4255;48.730;9.156;2023-02-01T12:52:57;6.30;99.90
8436;DHT22;4255;48.730;9.156;2023-02-01T12:58:11;6.20;99.90
8436;DHT22;4255;48.730;9.156;2023-02-01T13:03:28;6.20;99.90
8436;DHT22;4255;48.730;9.156;2023-02-01T13:06:12;6.20;99.90
8436;DHT22;4255;48.730;9.156;2023-02-01T13:08:47;6.00;99.90
8436;DHT22;4255;48.730;9.156;2023-02-01T13:11:28;6.10;99.90
8436;DHT22;4255;48.730;9.156;2023-02-01T13:14:03;6.10;99.90
8436;DHT22;4255;48.730;9.156;2023-02-01T13:16:35;6.10;99.90
8436;DHT22;4255;48.730;9.156;2023-02-01T13:19:27;6.10;99.90
8436;DHT22;4255;48.730;9.156;2023-02-01T13:22:18;6.10;99.90
8436;DHT22;4255;48.730;9.156;2023-02-01T13:24:48;6.10;99.90
8436;DHT22;4255;48.730;9.156;2023-02-01T13:27:16;6.20;99.90
8436;DHT22;4255;48.730;9.156;2023-02-01T13:30:06;6.20;99.90
8436;DHT22;4255;48.730;9.156;2023-02-01T13:40:44;6.50;99.90
8436;DHT22;4255;48.730;9.156;2023-02-01T13:43:31;6.50;99.90
8436;DHT22;4255;48.730;9.156;2023-02-01T13:46:04;6.60;99.90
8436;DHT22;4255;48.730;9.156;2023-02-01T13:48:55;6.50;99.90
8436;DHT22;4255;48.730;9.156;2023-02-01T13:51:44;6.40;99.90
8436;DHT22;4255;48.730;9.156;2023-02-01T13:54:33;6.60;99.90
8436;DHT22;4255;48.730;9.156;2023-02-01T13:57:02;6.50;99.90
8436;DHT22;4255;48.730;9.156;2023-02-01T14:10:54;6.50;99.90
8436;DHT22;4255;48.730;9.156;2023-02-01T14:13:36;6.50;99.90
8436;DHT22;4255;48.730;9.156;2023-02-01T14:23:55;6.10;99.90
8436;DHT22;4255;48.730;9.156;2023-02-01T14:32:18;6.00;99.90
8436;DHT22;4255;48.730;9.156;2023-02-01T14:44:50;6.20;99.90
8436;DHT22;4255;48.730;9.156;2023-02-01T14:52:40;6.10;99.90
8436;DHT22;4255;48.730;9.156;2023-02-01T14:55:24;6.10;99.90
8436;DHT22;4255;48.730;9.156;2023-02-01T14:57:53;5.80;99.90
8436;DHT22;4255;48.730;9.156;2023-02-01T15:00:24;5.70;99.90
8436;DHT22;4255;48.730;9.156;2023-02-01T15:02:52;5.70;99.90
8436;DHT22;4255;48.730;9.156;2023-02-01T15:05:32;5.70;99.90
8436;DHT22;4255;48.730;9.156;2023-02-01T15:08:21;5.90;99.90
8436;DHT22;4255;48.730;9.156;2023-02-01T15:10:50;6.00;99.90
8436;DHT22;4255;48.730;9.156;2023-02-01T15:13:22;6.00;99.90
8436;DHT22;4255;48.730;9.156;2023-02-01T15:16:11;6.00;99.90
8436;DHT22;4255;48.730;9.156;2023-02-01T15:18:38;5.90;99.90
8436;DHT22;4255;48.730;9.156;2023-02-01T15:21:05;6.10;99.90
8436;DHT22;4255;48.730;9.156;2023-02-01T15:23:31;6.00;99.90
8436;DHT22;4255;48.730;9.156;2023-02-01T15:25:57;6.00;99.90
8436;DHT22;4255;48.730;9.156;2023-02-01T15:28:26;5.80;99.90
8436;DHT22;4255;48.730;9.156;2023-02-01T15:30:58;5.70;99.90
8436;DHT22;4255;48.730;9.156;2023-02-01T15:33:24;5.90;99.90
8436;DHT22;4255;48.730;9.156;2023-02-01T15:36:11;5.70;99.90
8436;DHT22;4255;48.730;9.156;2023-02-01T15:38:43;5.70;99.90
8436;DHT22;4255;48.730;9.156;2023-02-01T15:41:13;5.70;99.90
8436;DHT22;4255;48.730;9.156;2023-02-01T15:46:22;5.80;99.90
8436;DHT22;4255;48.730;9.156;2023-02-01T15:48:51;5.80;99.90
8436;DHT22;4255;48.730;9.156;2023-02-01T15:51:22;5.80;99.90
8436;DHT22;4255;48.730;9.156;2023-02-01T15:54:02;5.80;99.90
8436;DHT22;4255;48.730;9.156;2023-02-01T15:56:34;5.80;99.90
8436;DHT22;4255;48.730;9.156;2023-02-01T15:59:02;5.80;99.90
8436;DHT22;4255;48.730;9.156;2023-02-01T16:01:29;5.90;99.90
8436;DHT22;4255;48.730;9.156;2023-02-01T16:04:21;5.90;99.90
8436;DHT22;4255;48.730;9.156;2023-02-01T16:09:20;5.80;99.90
8436;DHT22;4255;48.730;9.156;2023-02-01T16:14:20;5.90;99.90
8436;DHT22;4255;48.730;9.156;2023-02-01T16:16:46;5.90;99.90
8436;DHT22;4255;48.730;9.156;2023-02-01T16:19:11;6.00;99.90
8436;DHT22;4255;48.730;9.156;2023-02-01T16:21:37;5.90;99.90
8436;DHT22;4255;48.730;9.156;2023-02-01T16:24:03;5.90;99.90
8436;DHT22;4255;48.730;9.156;2023-02-01T16:26:30;5.90;99.90
8436;DHT22;4255;48.730;9.156;2023-02-01T16:28:57;5.90;99.90
8436;DHT22;4255;48.730;9.156;2023-02-01T16:31:28;5.90;99.90
8436;DHT22;4255;48.730;9.156;2023-02-01T16:33:54;6.00;99.90
8436;DHT22;4255;48.730;9.156;2023-02-01T16:36:20;5.90;99.90
8436;DHT22;4255;48.730;9.156;2023-02-01T16:38:49;5.80;99.90
8436;DHT22;4255;48.730;9.156;2023-02-01T16:41:19;6.00;99.90
8436;DHT22;4255;48.730;9.156;2023-02-01T16:43:45;6.00;99.90
8436;DHT22;4255;48.730;9.156;2023-02-01T16:46:17;6.10;99.90
8436;DHT22;4255;48.730;9.156;2023-02-01T16:48:50;6.10;99.90
8436;DHT22;4255;48.730;9.156;2023-02-01T16:51:17;6.10;99.90
8436;DHT22;4255;48.730;9.156;2023-02-01T16:53:43;6.00;99.90
8436;DHT22;4255;48.730;9.156;2023-02-01T16:56:17;6.00;99.90
8436;DHT22;4255;48.730;9.156;2023-02-01T16:58:43;6.00;99.90
8436;DHT22;4255;48.730;9.156;2023-02-01T17:01:13;6.10;99.90
8436;DHT22;4255;48.730;9.156;2023-02-01T17:03:39;6.10;99.90
8436;DHT22;4255;48.730;9.156;2023-02-01T17:06:07;5.90;99.90
8436;DHT22;4255;48.730;9.156;2023-02-01T17:08:39;6.00;99.90
8436;DHT22;4255;48.730;9.156;2023-02-01T17:11:07;5.80;99.90
8436;DHT22;4255;48.730;9.156;2023-02-01T17:13:33;5.70;99.90
8436;DHT22;4255;48.730;9.156;2023-02-01T17:18:55;5.60;99.90
8436;DHT22;4255;48.730;9.156;2023-02-01T17:21:22;5.50;99.90
8436;DHT22;4255;48.730;9.156;2023-02-01T17:23:48;5.50;99.90
8436;DHT22;4255;48.730;9.156;2023-02-01T17:26:14;5.60;99.90
8436;DHT22;4255;48.730;9.156;2023-02-01T17:28:40;5.60;99.90
8436;DHT22;4255;48.730;9.156;2023-02-01T17:31:05;5.60;99.90
8436;DHT22;4255;48.730;9.156;2023-02-01T17:33:34;5.80;99.90
8436;DHT22;4255;48.730;9.156;2023-02-01T17:36:01;5.90;99.90
8436;DHT22;4255;48.730;9.156;2023-02-01T17:38:28;5.90;99.90
8436;DHT22;4255;48.730;9.156;2023-02-01T17:40:53;5.90;99.90
8436;DHT22;4255;48.730;9.156;2023-02-01T17:43:24;5.90;99.90
8436;DHT22;4255;48.730;9.156;2023-02-01T17:45:57;6.00;99.90
8436;DHT22;4255;48.730;9.156;2023-02-01T17:48:24;6.00;99.90
8436;DHT22;4255;48.730;9.156;2023-02-01T17:50:51;5.90;99.90
8436;DHT22;4255;48.730;9.156;2023-02-01T17:53:23;5.90;99.90
8436;DHT22;4255;48.730;9.156;2023-02-01T17:55:50;5.80;99.90
8436;DHT22;4255;48.730;9.156;2023-02-01T17:58:16;6.00;99.90
8436;DHT22;4255;48.730;9.156;2023-02-01T18:00:43;6.10;99.90
8436;DHT22;4255;48.730;9.156;2023-02-01T18:03:19;5.90;99.90
8436;DHT22;4255;48.730;9.156;2023-02-01T18:05:47;5.80;99.90
8436;DHT22;4255;48.730;9.156;2023-02-01T18:08:16;5.90;99.90
8436;DHT22;4255;48.730;9.156;2023-02-01T18:10:42;5.90;99.90
8436;DHT22;4255;48.730;9.156;2023-02-01T18:13:10;5.80;99.90
8436;DHT22;4255;48.730;9.156;2023-02-01T18:15:36;5.70;99.90
8436;DHT22;4255;48.730;9.156;2023-02-01T18:18:04;5.70;99.90
8436;DHT22;4255;48.730;9.156;2023-02-01T18:20:30;5.70;99.90
8436;DHT22;4255;48.730;9.156;2023-02-01T18:22:55;5.70;99.90
8436;DHT22;4255;48.730;9.156;2023-02-01T18:25:25;5.80;99.90
8436;DHT22;4255;48.730;9.156;2023-02-01T18:27:52;5.90;99.90
8436;DHT22;4255;48.730;9.156;2023-02-01T18:30:23;6.00;99.90
8436;DHT22;4255;48.730;9.156;2023-02-01T18:32:49;5.90;99.90
8436;DHT22;4255;48.730;9.156;2023-02-01T18:35:19;5.80;99.90
8436;DHT22;4255;48.730;9.156;2023-02-01T18:37:45;5.60;99.90
8436;DHT22;4255;48.730;9.156;2023-02-01T18:40:17;5.60;99.90
8436;DHT22;4255;48.730;9.156;2023-02-01T18:42:43;5.60;99.90
8436;DHT22;4255;48.730;9.156;2023-02-01T18:47:57;5.60;99.90
8436;DHT22;4255;48.730;9.156;2023-02-01T18:50:24;5.60;99.90
8436;DHT22;4255;48.730;9.156;2023-02-01T18:52:55;5.60;99.90
8436;DHT22;4255;48.730;9.156;2023-02-01T18:55:22;5.70;99.90
8436;DHT22;4255;48.730;9.156;2023-02-01T18:57:48;5.70;99.90
8436;DHT22;4255;48.730;9.156;2023-02-01T19:00:16;5.70;99.90
8436;DHT22;4255;48.730;9.156;2023-02-01T19:02:41;5.70;99.90
8436;DHT22;4255;48.730;9.156;2023-02-01T19:05:09;5.70;99.90
8436;DHT22;4255;48.730;9.156;2023-02-01T19:07:35;5.70;99.90
8436;DHT22;4255;48.730;9.156;2023-02-01T19:10:02;5.60;99.90
8436;DHT22;4255;48.730;9.156;2023-02-01T19:12:31;5.70;99.90
8436;DHT22;4255;48.730;9.156;2023-02-01T19:14:58;5.60;99.90